sensor_id;sensor_type;location;lat;lon;timestamp;pressure;altitude;pressure_sealevel;temperature;humidity
8699;BME280;4386;51.236;6.742;2023-05-22T00:00:06;96555.13;;;18.99;57.28
8699;BME280;4386;51.236;6.742;2023-05-22T00:01:18;96557.81;;;18.99;57.29
8699;BME280;4386;51.236;6.742;2023-05-22T00:02:27;96559.69;;;18.99;57.26
8699;BME280;4386;51.236;6.742;2023-05-22T00:03:31;96559.97;;;18.97;57.61
8699;BME280;4386;51.236;6.742;2023-05-22T00:04:40;96561.03;;;18.96;57.66
8699;BME280;4386;51.236;6.742;2023-05-22T00:05:45;96557.84;;;18.94;57.54
8699;BME280;4386;51.236;6.742;2023-05-22T00:06:52;96561.59;;;18.93;57.50
8699;BME280;4386;51.236;6.742;2023-05-22T00:07:56;96560.53;;;18.89;57.81
8699;BME280;4386;51.236;6.742;2023-05-22T00:09:01;96561.59;;;18.88;57.66
8699;BME280;4386;51.236;6.742;2023-05-22T00:10:05;96563.22;;;18.89;57.49
8699;BME280;4386;51.236;6.742;2023-05-22T00:11:11;96557.34;;;18.87;57.70
8699;BME280;4386;51.236;6.742;2023-05-22T00:12:15;96555.47;;;18.83;57.73
8699;BME280;4386;51.236;6.742;2023-05-22T00:13:20;96558.94;;;18.83;57.50
8699;BME280;4386;51.236;6.742;2023-05-22T00:14:24;96557.88;;;18.79;57.67
8699;BME280;4386;51.236;6.742;2023-05-22T00:15:28;96553.63;;;18.78;57.94
8699;BME280;4386;51.236;6.742;2023-05-22T00:16:33;96554.69;;;18.77;58.22
8699;BME280;4386;51.236;6.742;2023-05-22T00:17:38;96552.56;;;18.74;57.74
8699;BME280;4386;51.236;6.742;2023-05-22T00:19:02;96555.78;;;18.71;58.19
8699;BME280;4386;51.236;6.742;2023-05-22T00:20:09;96553.66;;;18.68;58.15
8699;BME280;4386;51.236;6.742;2023-05-22T00:21:16;96552.03;;;18.67;58.12
8699;BME280;4386;51.236;6.742;2023-05-22T00:22:21;96553.13;;;18.61;58.55
8699;BME280;4386;51.236;6.742;2023-05-22T00:23:25;96547.22;;;18.59;58.49
8699;BME280;4386;51.236;6.742;2023-05-22T00:24:32;96551.25;;;18.56;58.56
8699;BME280;4386;51.236;6.742;2023-05-22T00:25:36;96545.38;;;18.54;58.70
8699;BME280;4386;51.236;6.742;2023-05-22T00:26:41;96549.94;;;18.54;58.71
8699;BME280;4386;51.236;6.742;2023-05-22T00:27:46;96546.44;;;18.53;59.07
8699;BME280;4386;51.236;6.742;2023-05-22T00:28:51;96540.28;;;18.48;58.97
8699;BME280;4386;51.236;6.742;2023-05-22T00:29:57;96546.72;;;18.47;59.17
8699;BME280;4386;51.236;6.742;2023-05-22T00:31:03;96546.19;;;18.45;59.30
8699;BME280;4386;51.236;6.742;2023-05-22T00:32:07;96544.06;;;18.42;59.36
8699;BME280;4386;51.236;6.742;2023-05-22T00:33:14;96540.81;;;18.40;59.60
8699;BME280;4386;51.236;6.742;2023-05-22T00:34:18;96541.66;;;18.35;59.74
8699;BME280;4386;51.236;6.742;2023-05-22T00:35:25;96544.06;;;18.32;59.77
8699;BME280;4386;51.236;6.742;2023-05-22T00:36:29;96548.38;;;18.28;60.00
8699;BME280;4386;51.236;6.742;2023-05-22T00:37:35;96538.44;;;18.23;60.02
8699;BME280;4386;51.236;6.742;2023-05-22T00:38:38;96539.25;;;18.23;60.33
8699;BME280;4386;51.236;6.742;2023-05-22T00:39:43;96545.69;;;18.22;60.20
8699;BME280;4386;51.236;6.742;2023-05-22T00:40:47;96538.72;;;18.21;60.47
8699;BME280;4386;51.236;6.742;2023-05-22T00:41:51;96531.75;;;18.20;60.45
8699;BME280;4386;51.236;6.742;2023-05-22T00:42:55;96531.50;;;18.22;60.38
8699;BME280;4386;51.236;6.742;2023-05-22T00:44:01;96538.44;;;18.23;60.61
8699;BME280;4386;51.236;6.742;2023-05-22T00:45:05;96546.47;;;18.23;60.71
8699;BME280;4386;51.236;6.742;2023-05-22T00:46:10;96538.72;;;18.21;60.77
8699;BME280;4386;51.236;6.742;2023-05-22T00:47:15;96542.47;;;18.20;60.78
8699;BME280;4386;51.236;6.742;2023-05-22T00:48:20;96539.28;;;18.18;60.84
8699;BME280;4386;51.236;6.742;2023-05-22T00:49:23;96537.66;;;18.17;60.93
8699;BME280;4386;51.236;6.742;2023-05-22T00:50:31;96541.97;;;18.18;61.13
8699;BME280;4386;51.236;6.742;2023-05-22T00:51:35;96545.69;;;18.17;61.02
8699;BME280;4386;51.236;6.742;2023-05-22T00:52:41;96549.97;;;18.13;61.44
8699;BME280;4386;51.236;6.742;2023-05-22T00:53:47;96544.63;;;18.13;61.38
8699;BME280;4386;51.236;6.742;2023-05-22T00:54:52;96535.53;;;18.09;61.55
8699;BME280;4386;51.236;6.742;2023-05-22T00:55:58;96538.22;;;18.09;61.60
8699;BME280;4386;51.236;6.742;2023-05-22T00:57:02;96543.84;;;18.08;61.81
8699;BME280;4386;51.236;6.742;2023-05-22T00:58:08;96544.38;;;18.05;61.67
8699;BME280;4386;51.236;6.742;2023-05-22T00:59:13;96540.88;;;18.04;62.17
8699;BME280;4386;51.236;6.742;2023-05-22T01:00:18;96533.41;;;18.01;62.03
8699;BME280;4386;51.236;6.742;2023-05-22T01:01:22;96537.13;;;18.00;62.12
8699;BME280;4386;51.236;6.742;2023-05-22T01:02:28;96530.19;;;17.99;61.90
8699;BME280;4386;51.236;6.742;2023-05-22T01:03:35;96540.91;;;17.99;62.15
8699;BME280;4386;51.236;6.742;2023-05-22T01:04:47;96538.22;;;17.99;61.96
8699;BME280;4386;51.236;6.742;2023-05-22T01:05:54;96544.66;;;17.98;62.13
8699;BME280;4386;51.236;6.742;2023-05-22T01:06:59;96540.91;;;17.99;62.28
8699;BME280;4386;51.236;6.742;2023-05-22T01:08:05;96542.22;;;17.97;62.22
8699;BME280;4386;51.236;6.742;2023-05-22T01:09:11;96534.22;;;17.92;62.44
8699;BME280;4386;51.236;6.742;2023-05-22T01:10:16;96535.28;;;17.91;62.32
8699;BME280;4386;51.236;6.742;2023-05-22T01:11:24;96536.38;;;17.90;62.48
8699;BME280;4386;51.236;6.742;2023-05-22T01:12:35;96547.59;;;17.87;62.39
8699;BME280;4386;51.236;6.742;2023-05-22T01:13:46;96543.59;;;17.84;62.64
8699;BME280;4386;51.236;6.742;2023-05-22T01:15:00;96536.38;;;17.80;62.90
8699;BME280;4386;51.236;6.742;2023-05-22T01:16:14;96540.91;;;17.79;62.81
8699;BME280;4386;51.236;6.742;2023-05-22T01:17:27;96542.25;;;17.77;62.89
8699;BME280;4386;51.236;6.742;2023-05-22T01:18:41;96542.53;;;17.75;63.05
8699;BME280;4386;51.236;6.742;2023-05-22T01:19:54;96539.56;;;17.72;63.21
8699;BME280;4386;51.236;6.742;2023-05-22T01:21:16;96544.66;;;17.68;63.16
8699;BME280;4386;51.236;6.742;2023-05-22T01:22:31;96538.22;;;17.64;63.34
8699;BME280;4386;51.236;6.742;2023-05-22T01:23:53;96538.22;;;17.64;63.56
8699;BME280;4386;51.236;6.742;2023-05-22T01:25:18;96530.19;;;17.59;63.43
8699;BME280;4386;51.236;6.742;2023-05-22T01:26:57;96538.19;;;17.54;63.48
8699;BME280;4386;51.236;6.742;2023-05-22T01:28:15;96540.06;;;17.48;63.75
8699;BME280;4386;51.236;6.742;2023-05-22T01:29:34;96537.66;;;17.47;63.88
8699;BME280;4386;51.236;6.742;2023-05-22T01:30:49;96545.13;;;17.45;63.84
8699;BME280;4386;51.236;6.742;2023-05-22T01:31:58;96539.25;;;17.43;63.90
8699;BME280;4386;51.236;6.742;2023-05-22T01:33:05;96537.38;;;17.43;63.94
8699;BME280;4386;51.236;6.742;2023-05-22T01:34:11;96537.09;;;17.45;63.94
8699;BME280;4386;51.236;6.742;2023-05-22T01:35:16;96525.34;;;17.46;63.65
8699;BME280;4386;51.236;6.742;2023-05-22T01:36:20;96523.19;;;17.48;63.62
8699;BME280;4386;51.236;6.742;2023-05-22T01:37:28;96530.16;;;17.49;63.43
8699;BME280;4386;51.236;6.742;2023-05-22T01:38:33;96524.56;;;17.55;63.50
8699;BME280;4386;51.236;6.742;2023-05-22T01:39:39;96525.91;;;17.58;63.27
8699;BME280;4386;51.236;6.742;2023-05-22T01:40:45;96531.00;;;17.59;63.30
8699;BME280;4386;51.236;6.742;2023-05-22T01:41:51;96537.72;;;17.57;62.97
8699;BME280;4386;51.236;6.742;2023-05-22T01:42:55;96522.41;;;17.57;63.32
8699;BME280;4386;51.236;6.742;2023-05-22T01:44:00;96530.19;;;17.59;63.47
8699;BME280;4386;51.236;6.742;2023-05-22T01:45:05;96526.47;;;17.60;63.04
8699;BME280;4386;51.236;6.742;2023-05-22T01:46:13;96532.59;;;17.60;63.04
8699;BME280;4386;51.236;6.742;2023-05-22T01:47:18;96536.09;;;17.61;63.11
8699;BME280;4386;51.236;6.742;2023-05-22T01:48:25;96529.94;;;17.65;62.93
8699;BME280;4386;51.236;6.742;2023-05-22T01:49:28;96529.66;;;17.67;62.68
8699;BME280;4386;51.236;6.742;2023-05-22T01:50:34;96528.06;;;17.71;62.73
8699;BME280;4386;51.236;6.742;2023-05-22T01:51:46;96535.53;;;17.74;62.53
8699;BME280;4386;51.236;6.742;2023-05-22T01:53:00;96527.50;;;17.74;62.63
8699;BME280;4386;51.236;6.742;2023-05-22T01:54:21;96536.09;;;17.76;62.51
8699;BME280;4386;51.236;6.742;2023-05-22T01:55:31;96533.44;;;17.76;62.52
8699;BME280;4386;51.236;6.742;2023-05-22T01:56:42;96529.66;;;17.77;62.41
8699;BME280;4386;51.236;6.742;2023-05-22T01:57:59;96526.72;;;17.79;62.41
8699;BME280;4386;51.236;6.742;2023-05-22T01:59:13;96531.78;;;17.80;62.25
8699;BME280;4386;51.236;6.742;2023-05-22T02:00:20;96527.53;;;17.79;62.12
8699;BME280;4386;51.236;6.742;2023-05-22T02:01:28;96525.66;;;17.80;62.42
8699;BME280;4386;51.236;6.742;2023-05-22T02:02:35;96519.50;;;17.79;62.26
8699;BME280;4386;51.236;6.742;2023-05-22T02:03:41;96525.66;;;17.80;62.20
8699;BME280;4386;51.236;6.742;2023-05-22T02:04:52;96528.06;;;17.81;62.20
8699;BME280;4386;51.236;6.742;2023-05-22T02:06:01;96518.16;;;17.82;62.39
8699;BME280;4386;51.236;6.742;2023-05-22T02:07:08;96518.16;;;17.82;62.04
8699;BME280;4386;51.236;6.742;2023-05-22T02:08:15;96522.69;;;17.81;62.29
8699;BME280;4386;51.236;6.742;2023-05-22T02:09:20;96528.84;;;17.82;62.27
8699;BME280;4386;51.236;6.742;2023-05-22T02:10:27;96520.56;;;17.78;62.36
8699;BME280;4386;51.236;6.742;2023-05-22T02:11:33;96515.19;;;17.78;62.22
8699;BME280;4386;51.236;6.742;2023-05-22T02:12:39;96515.22;;;17.73;62.44
8699;BME280;4386;51.236;6.742;2023-05-22T02:13:43;96518.97;;;17.72;62.54
8699;BME280;4386;51.236;6.742;2023-05-22T02:14:48;96514.66;;;17.71;62.61
8699;BME280;4386;51.236;6.742;2023-05-22T02:15:54;96509.31;;;17.71;62.55
8699;BME280;4386;51.236;6.742;2023-05-22T02:17:01;96517.34;;;17.71;62.63
8699;BME280;4386;51.236;6.742;2023-05-22T02:18:09;96517.34;;;17.71;62.48
8699;BME280;4386;51.236;6.742;2023-05-22T02:19:15;96508.78;;;17.69;62.88
8699;BME280;4386;51.236;6.742;2023-05-22T02:20:20;96509.31;;;17.71;62.55
8699;BME280;4386;51.236;6.742;2023-05-22T02:21:23;96510.41;;;17.70;62.58
8699;BME280;4386;51.236;6.742;2023-05-22T02:22:28;96509.31;;;17.71;62.64
8699;BME280;4386;51.236;6.742;2023-05-22T02:23:40;96506.38;;;17.73;62.53
8699;BME280;4386;51.236;6.742;2023-05-22T02:24:46;96512.53;;;17.73;62.68
8699;BME280;4386;51.236;6.742;2023-05-22T02:25:52;96513.59;;;17.72;62.53
8699;BME280;4386;51.236;6.742;2023-05-22T02:26:56;96520.56;;;17.73;62.64
8699;BME280;4386;51.236;6.742;2023-05-22T02:28:02;96518.97;;;17.72;62.74
8699;BME280;4386;51.236;6.742;2023-05-22T02:29:07;96513.84;;;17.70;62.74
8699;BME280;4386;51.236;6.742;2023-05-22T02:30:12;96518.44;;;17.70;62.84
8699;BME280;4386;51.236;6.742;2023-05-22T02:31:16;96516.25;;;17.67;62.91
8699;BME280;4386;51.236;6.742;2023-05-22T02:32:23;96518.41;;;17.65;63.23
8699;BME280;4386;51.236;6.742;2023-05-22T02:33:27;96515.22;;;17.63;63.01
8699;BME280;4386;51.236;6.742;2023-05-22T02:34:31;96515.75;;;17.60;63.32
8699;BME280;4386;51.236;6.742;2023-05-22T02:35:40;96519.75;;;17.57;63.33
8699;BME280;4386;51.236;6.742;2023-05-22T02:36:46;96520.03;;;17.56;63.37
8699;BME280;4386;51.236;6.742;2023-05-22T02:37:53;96515.47;;;17.56;63.53
8699;BME280;4386;51.236;6.742;2023-05-22T02:38:59;96521.66;;;17.57;63.33
8699;BME280;4386;51.236;6.742;2023-05-22T02:40:05;96515.69;;;17.55;63.70
8699;BME280;4386;51.236;6.742;2023-05-22T02:41:13;96518.91;;;17.52;63.70
8699;BME280;4386;51.236;6.742;2023-05-22T02:42:16;96516.78;;;17.49;63.73
8699;BME280;4386;51.236;6.742;2023-05-22T02:43:21;96524.00;;;17.48;64.03
8699;BME280;4386;51.236;6.742;2023-05-22T02:44:25;96517.31;;;17.46;63.98
8699;BME280;4386;51.236;6.742;2023-05-22T02:45:30;96516.78;;;17.44;64.43
8699;BME280;4386;51.236;6.742;2023-05-22T02:46:34;96522.13;;;17.44;64.14
8699;BME280;4386;51.236;6.742;2023-05-22T02:47:40;96518.91;;;17.42;64.31
8699;BME280;4386;51.236;6.742;2023-05-22T02:48:44;96513.28;;;17.38;64.53
8699;BME280;4386;51.236;6.742;2023-05-22T02:49:49;96523.72;;;17.35;64.34
8699;BME280;4386;51.236;6.742;2023-05-22T02:50:53;96522.13;;;17.34;64.44
8699;BME280;4386;51.236;6.742;2023-05-22T02:51:57;96524.00;;;17.33;64.42
8699;BME280;4386;51.236;6.742;2023-05-22T02:53:02;96515.69;;;17.30;64.70
8699;BME280;4386;51.236;6.742;2023-05-22T02:54:09;96519.44;;;17.29;64.67
8699;BME280;4386;51.236;6.742;2023-05-22T02:55:14;96523.16;;;17.28;64.67
8699;BME280;4386;51.236;6.742;2023-05-22T02:56:19;96522.09;;;17.24;64.84
8699;BME280;4386;51.236;6.742;2023-05-22T02:57:23;96527.47;;;17.24;64.93
8699;BME280;4386;51.236;6.742;2023-05-22T02:58:29;96521.03;;;17.19;65.01
8699;BME280;4386;51.236;6.742;2023-05-22T02:59:33;96522.88;;;17.19;65.11
8699;BME280;4386;51.236;6.742;2023-05-22T03:00:41;96530.09;;;17.18;65.04
8699;BME280;4386;51.236;6.742;2023-05-22T03:01:50;96529.06;;;17.19;65.10
8699;BME280;4386;51.236;6.742;2023-05-22T03:02:59;96521.56;;;17.16;65.21
8699;BME280;4386;51.236;6.742;2023-05-22T03:04:05;96530.09;;;17.18;65.27
8699;BME280;4386;51.236;6.742;2023-05-22T03:05:14;96524.75;;;17.13;65.37
8699;BME280;4386;51.236;6.742;2023-05-22T03:06:20;96525.56;;;17.14;65.28
8699;BME280;4386;51.236;6.742;2023-05-22T03:07:32;96519.13;;;17.15;65.25
8699;BME280;4386;51.236;6.742;2023-05-22T03:08:39;96523.69;;;17.14;65.30
8699;BME280;4386;51.236;6.742;2023-05-22T03:09:47;96525.28;;;17.15;65.30
8699;BME280;4386;51.236;6.742;2023-05-22T03:10:51;96514.59;;;17.15;65.19
8699;BME280;4386;51.236;6.742;2023-05-22T03:11:55;96520.22;;;17.14;65.28
8699;BME280;4386;51.236;6.742;2023-05-22T03:13:00;96518.34;;;17.14;65.25
8699;BME280;4386;51.236;6.742;2023-05-22T03:14:05;96514.59;;;17.15;65.20
8699;BME280;4386;51.236;6.742;2023-05-22T03:15:10;96519.94;;;17.15;65.05
8699;BME280;4386;51.236;6.742;2023-05-22T03:16:16;96513.78;;;17.15;65.08
8699;BME280;4386;51.236;6.742;2023-05-22T03:17:19;96514.59;;;17.15;64.94
8699;BME280;4386;51.236;6.742;2023-05-22T03:18:25;96511.91;;;17.15;64.99
8699;BME280;4386;51.236;6.742;2023-05-22T03:19:29;96519.94;;;17.15;64.92
8699;BME280;4386;51.236;6.742;2023-05-22T03:20:34;96517.25;;;17.15;64.94
8699;BME280;4386;51.236;6.742;2023-05-22T03:21:39;96511.38;;;17.13;65.10
8699;BME280;4386;51.236;6.742;2023-05-22T03:22:45;96513.00;;;17.14;65.02
8699;BME280;4386;51.236;6.742;2023-05-22T03:23:50;96521.03;;;17.14;65.04
8699;BME280;4386;51.236;6.742;2023-05-22T03:24:55;96514.59;;;17.15;65.20
8699;BME280;4386;51.236;6.742;2023-05-22T03:25:59;96514.06;;;17.18;64.98
8699;BME280;4386;51.236;6.742;2023-05-22T03:27:05;96508.19;;;17.16;65.01
8699;BME280;4386;51.236;6.742;2023-05-22T03:28:09;96513.53;;;17.16;64.90
8699;BME280;4386;51.236;6.742;2023-05-22T03:29:14;96516.22;;;17.16;64.94
8699;BME280;4386;51.236;6.742;2023-05-22T03:30:18;96514.59;;;17.15;64.86
8699;BME280;4386;51.236;6.742;2023-05-22T03:31:23;96523.69;;;17.14;65.00
8699;BME280;4386;51.236;6.742;2023-05-22T03:32:27;96518.34;;;17.14;64.98
8699;BME280;4386;51.236;6.742;2023-05-22T03:33:34;96517.53;;;17.14;65.02
8699;BME280;4386;51.236;6.742;2023-05-22T03:34:39;96516.75;;;17.13;65.10
8699;BME280;4386;51.236;6.742;2023-05-22T03:35:45;96522.63;;;17.15;65.20
8699;BME280;4386;51.236;6.742;2023-05-22T03:36:49;96524.47;;;17.15;65.00
8699;BME280;4386;51.236;6.742;2023-05-22T03:37:53;96520.75;;;17.16;65.25
8699;BME280;4386;51.236;6.742;2023-05-22T03:38:56;96521.03;;;17.14;65.04
8699;BME280;4386;51.236;6.742;2023-05-22T03:40:01;96520.75;;;17.16;65.18
8699;BME280;4386;51.236;6.742;2023-05-22T03:41:05;96515.16;;;17.17;65.36
8699;BME280;4386;51.236;6.742;2023-05-22T03:42:09;96519.41;;;17.18;64.85
8699;BME280;4386;51.236;6.742;2023-05-22T03:43:14;96515.66;;;17.19;64.96
8699;BME280;4386;51.236;6.742;2023-05-22T03:44:20;96522.63;;;17.21;64.96
8699;BME280;4386;51.236;6.742;2023-05-22T03:45:24;96514.63;;;17.21;64.93
8699;BME280;4386;51.236;6.742;2023-05-22T03:46:30;96522.63;;;17.21;64.93
8699;BME280;4386;51.236;6.742;2023-05-22T03:47:35;96520.50;;;17.23;64.75
8699;BME280;4386;51.236;6.742;2023-05-22T03:48:41;96514.59;;;17.26;64.85
8699;BME280;4386;51.236;6.742;2023-05-22T03:49:45;96517.28;;;17.26;64.90
8699;BME280;4386;51.236;6.742;2023-05-22T03:50:50;96520.78;;;17.26;64.98
8699;BME280;4386;51.236;6.742;2023-05-22T03:51:53;96513.81;;;17.25;64.87
8699;BME280;4386;51.236;6.742;2023-05-22T03:52:59;96509.78;;;17.23;65.02
8699;BME280;4386;51.236;6.742;2023-05-22T03:54:03;96516.22;;;17.27;64.90
8699;BME280;4386;51.236;6.742;2023-05-22T03:55:08;96519.19;;;17.30;64.69
8699;BME280;4386;51.236;6.742;2023-05-22T03:56:12;96522.38;;;17.32;64.58
8699;BME280;4386;51.236;6.742;2023-05-22T03:57:18;96518.91;;;17.32;64.63
8699;BME280;4386;51.236;6.742;2023-05-22T03:58:22;96519.69;;;17.32;64.83
8699;BME280;4386;51.236;6.742;2023-05-22T03:59:28;96518.91;;;17.32;64.72
8699;BME280;4386;51.236;6.742;2023-05-22T04:00:33;96509.81;;;17.33;64.55
8699;BME280;4386;51.236;6.742;2023-05-22T04:01:39;96515.16;;;17.33;64.52
8699;BME280;4386;51.236;6.742;2023-05-22T04:02:44;96518.63;;;17.33;64.46
8699;BME280;4386;51.236;6.742;2023-05-22T04:03:51;96515.16;;;17.33;64.56
8699;BME280;4386;51.236;6.742;2023-05-22T04:04:56;96525.88;;;17.33;64.83
8699;BME280;4386;51.236;6.742;2023-05-22T04:06:00;96515.16;;;17.33;64.45
8699;BME280;4386;51.236;6.742;2023-05-22T04:07:04;96517.31;;;17.31;64.46
8699;BME280;4386;51.236;6.742;2023-05-22T04:08:09;96510.63;;;17.33;64.58
8699;BME280;4386;51.236;6.742;2023-05-22T04:09:15;96515.16;;;17.33;64.68
8699;BME280;4386;51.236;6.742;2023-05-22T04:10:18;96504.44;;;17.33;64.64
8699;BME280;4386;51.236;6.742;2023-05-22T04:11:25;96507.13;;;17.33;64.50
8699;BME280;4386;51.236;6.742;2023-05-22T04:12:32;96514.63;;;17.36;64.51
8699;BME280;4386;51.236;6.742;2023-05-22T04:13:36;96508.72;;;17.39;64.35
8699;BME280;4386;51.236;6.742;2023-05-22T04:14:40;96509.25;;;17.41;64.22
8699;BME280;4386;51.236;6.742;2023-05-22T04:15:44;96514.63;;;17.41;64.22
8699;BME280;4386;51.236;6.742;2023-05-22T04:16:48;96513.56;;;17.42;64.40
8699;BME280;4386;51.236;6.742;2023-05-22T04:17:53;96511.97;;;17.46;64.33
8699;BME280;4386;51.236;6.742;2023-05-22T04:19:00;96510.91;;;17.47;64.05
8699;BME280;4386;51.236;6.742;2023-05-22T04:20:06;96513.03;;;17.50;64.25
8699;BME280;4386;51.236;6.742;2023-05-22T04:21:11;96514.09;;;17.54;63.96
8699;BME280;4386;51.236;6.742;2023-05-22T04:22:16;96510.41;;;17.60;63.87
8699;BME280;4386;51.236;6.742;2023-05-22T04:23:21;96515.22;;;17.63;63.73
8699;BME280;4386;51.236;6.742;2023-05-22T04:24:27;96518.69;;;17.68;63.73
8699;BME280;4386;51.236;6.742;2023-05-22T04:25:30;96522.69;;;17.71;63.54
8699;BME280;4386;51.236;6.742;2023-05-22T04:26:37;96515.22;;;17.73;63.51
8699;BME280;4386;51.236;6.742;2023-05-22T04:27:44;96525.91;;;17.78;63.65
8699;BME280;4386;51.236;6.742;2023-05-22T04:28:51;96517.09;;;17.83;63.18
8699;BME280;4386;51.236;6.742;2023-05-22T04:29:55;96518.94;;;17.87;63.21
8699;BME280;4386;51.236;6.742;2023-05-22T04:31:01;96528.03;;;17.91;62.97
8699;BME280;4386;51.236;6.742;2023-05-22T04:32:09;96522.69;;;17.96;62.94
8699;BME280;4386;51.236;6.742;2023-05-22T04:33:14;96521.06;;;18.00;62.93
8699;BME280;4386;51.236;6.742;2023-05-22T04:34:26;96532.31;;;18.07;62.93
8699;BME280;4386;51.236;6.742;2023-05-22T04:35:31;96527.22;;;18.11;62.91
8699;BME280;4386;51.236;6.742;2023-05-22T04:36:36;96526.41;;;18.15;62.85
8699;BME280;4386;51.236;6.742;2023-05-22T04:37:41;96522.66;;;18.21;62.82
8699;BME280;4386;51.236;6.742;2023-05-22T04:38:49;96523.72;;;18.26;62.30
8699;BME280;4386;51.236;6.742;2023-05-22T04:39:53;96529.06;;;18.31;62.50
8699;BME280;4386;51.236;6.742;2023-05-22T04:40:59;96533.06;;;18.33;62.13
8699;BME280;4386;51.236;6.742;2023-05-22T04:42:05;96538.94;;;18.40;62.14
8699;BME280;4386;51.236;6.742;2023-05-22T04:43:09;96540.81;;;18.45;61.89
8699;BME280;4386;51.236;6.742;2023-05-22T04:44:15;96539.19;;;18.49;61.99
8699;BME280;4386;51.236;6.742;2023-05-22T04:45:18;96538.41;;;18.53;61.63
8699;BME280;4386;51.236;6.742;2023-05-22T04:46:27;96540.53;;;18.56;61.74
8699;BME280;4386;51.236;6.742;2023-05-22T04:47:33;96543.75;;;18.58;61.88
8699;BME280;4386;51.236;6.742;2023-05-22T04:48:41;96551.53;;;18.60;61.60
8699;BME280;4386;51.236;6.742;2023-05-22T04:49:48;96535.44;;;18.65;61.59
8699;BME280;4386;51.236;6.742;2023-05-22T04:50:56;96544.00;;;18.67;61.10
8699;BME280;4386;51.236;6.742;2023-05-22T04:51:59;96549.31;;;18.72;61.07
8699;BME280;4386;51.236;6.742;2023-05-22T04:53:06;96542.91;;;18.73;61.06
8699;BME280;4386;51.236;6.742;2023-05-22T04:54:11;96552.00;;;18.77;61.23
8699;BME280;4386;51.236;6.742;2023-05-22T04:55:15;96553.59;;;18.83;61.16
8699;BME280;4386;51.236;6.742;2023-05-22T04:56:22;96544.72;;;18.88;60.89
8699;BME280;4386;51.236;6.742;2023-05-22T04:57:38;96555.97;;;18.90;60.69
8699;BME280;4386;51.236;6.742;2023-05-22T04:58:43;96557.28;;;18.92;60.94
8699;BME280;4386;51.236;6.742;2023-05-22T04:59:46;96558.63;;;18.95;60.71
8699;BME280;4386;51.236;6.742;2023-05-22T05:00:52;96550.31;;;18.96;60.59
8699;BME280;4386;51.236;6.742;2023-05-22T05:01:56;96550.31;;;18.96;60.65
8699;BME280;4386;51.236;6.742;2023-05-22T05:03:00;96550.31;;;18.96;60.85
8699;BME280;4386;51.236;6.742;2023-05-22T05:04:04;96554.31;;;18.99;60.81
8699;BME280;4386;51.236;6.742;2023-05-22T05:05:11;96544.94;;;18.96;61.00
8699;BME280;4386;51.236;6.742;2023-05-22T05:06:15;96551.38;;;18.95;60.97
8699;BME280;4386;51.236;6.742;2023-05-22T05:07:23;96552.47;;;18.94;60.88
8699;BME280;4386;51.236;6.742;2023-05-22T05:08:28;96549.25;;;18.92;60.68
8699;BME280;4386;51.236;6.742;2023-05-22T05:09:32;96543.38;;;18.90;61.03
8699;BME280;4386;51.236;6.742;2023-05-22T05:10:36;96548.19;;;18.88;60.57
8699;BME280;4386;51.236;6.742;2023-05-22T05:11:43;96549.00;;;18.89;61.02
8699;BME280;4386;51.236;6.742;2023-05-22T05:12:46;96542.81;;;18.88;60.81
8699;BME280;4386;51.236;6.742;2023-05-22T05:13:51;96549.28;;;18.87;60.68
8699;BME280;4386;51.236;6.742;2023-05-22T05:14:55;96549.81;;;18.89;60.47
8699;BME280;4386;51.236;6.742;2023-05-22T05:16:00;96546.03;;;18.90;60.24
8699;BME280;4386;51.236;6.742;2023-05-22T05:17:04;96546.84;;;18.91;60.81
8699;BME280;4386;51.236;6.742;2023-05-22T05:18:09;96547.91;;;18.90;60.68
8699;BME280;4386;51.236;6.742;2023-05-22T05:19:14;96553.28;;;18.90;60.23
8699;BME280;4386;51.236;6.742;2023-05-22T05:20:21;96549.81;;;18.89;60.00
8699;BME280;4386;51.236;6.742;2023-05-22T05:21:27;96549.81;;;18.89;60.24
8699;BME280;4386;51.236;6.742;2023-05-22T05:22:33;96542.00;;;18.93;60.20
8699;BME280;4386;51.236;6.742;2023-05-22T05:23:37;96543.78;;;19.12;60.16
8699;BME280;4386;51.236;6.742;2023-05-22T05:24:41;96547.41;;;19.37;59.90
8699;BME280;4386;51.236;6.742;2023-05-22T05:25:45;96550.06;;;19.47;59.59
8699;BME280;4386;51.236;6.742;2023-05-22T05:26:51;96547.34;;;19.52;59.13
8699;BME280;4386;51.236;6.742;2023-05-22T05:27:57;96547.25;;;19.62;58.91
8699;BME280;4386;51.236;6.742;2023-05-22T05:29:02;96543.19;;;19.69;58.85
8699;BME280;4386;51.236;6.742;2023-05-22T05:30:07;96553.00;;;19.84;58.59
8699;BME280;4386;51.236;6.742;2023-05-22T05:31:13;96550.00;;;19.91;58.22
8699;BME280;4386;51.236;6.742;2023-05-22T05:32:18;96549.41;;;19.94;58.48
8699;BME280;4386;51.236;6.742;2023-05-22T05:33:23;96544.53;;;20.01;58.20
8699;BME280;4386;51.236;6.742;2023-05-22T05:34:26;96551.09;;;20.18;57.77
8699;BME280;4386;51.236;6.742;2023-05-22T05:35:35;96547.84;;;20.50;57.48
8699;BME280;4386;51.236;6.742;2023-05-22T05:36:39;96553.13;;;20.84;56.70
8699;BME280;4386;51.236;6.742;2023-05-22T05:37:44;96550.50;;;21.21;56.12
8699;BME280;4386;51.236;6.742;2023-05-22T05:38:47;96545.03;;;21.64;55.21
8699;BME280;4386;51.236;6.742;2023-05-22T05:39:53;96548.13;;;22.08;54.36
8699;BME280;4386;51.236;6.742;2023-05-22T05:40:59;96544.28;;;22.55;53.29
8699;BME280;4386;51.236;6.742;2023-05-22T05:42:05;96554.53;;;22.99;52.26
8699;BME280;4386;51.236;6.742;2023-05-22T05:43:09;96547.19;;;23.41;51.19
8699;BME280;4386;51.236;6.742;2023-05-22T05:44:16;96554.56;;;23.84;50.36
8699;BME280;4386;51.236;6.742;2023-05-22T05:45:21;96557.69;;;24.22;49.63
8699;BME280;4386;51.236;6.742;2023-05-22T05:46:26;96550.56;;;24.57;48.81
8699;BME280;4386;51.236;6.742;2023-05-22T05:47:32;96562.97;;;24.89;48.24
8699;BME280;4386;51.236;6.742;2023-05-22T05:48:37;96556.69;;;25.19;47.72
8699;BME280;4386;51.236;6.742;2023-05-22T05:49:42;96556.09;;;25.48;46.94
8699;BME280;4386;51.236;6.742;2023-05-22T05:50:47;96557.75;;;25.75;46.46
8699;BME280;4386;51.236;6.742;2023-05-22T05:51:53;96557.72;;;26.01;45.44
8699;BME280;4386;51.236;6.742;2023-05-22T05:52:57;96560.72;;;26.25;45.13
8699;BME280;4386;51.236;6.742;2023-05-22T05:54:03;96551.59;;;26.47;44.87
8699;BME280;4386;51.236;6.742;2023-05-22T05:55:10;96560.16;;;26.66;44.25
8699;BME280;4386;51.236;6.742;2023-05-22T05:56:15;96563.28;;;26.85;43.41
8699;BME280;4386;51.236;6.742;2023-05-22T05:57:19;96559.34;;;27.03;43.83
8699;BME280;4386;51.236;6.742;2023-05-22T05:58:23;96561.69;;;27.22;42.73
8699;BME280;4386;51.236;6.742;2023-05-22T05:59:28;96563.94;;;27.40;42.86
8699;BME280;4386;51.236;6.742;2023-05-22T06:00:33;96566.38;;;27.63;42.22